Time;durP1;ratioP1;P1;durP2;ratioP2;P2;SDS_P1;SDS_P2;PMS_P1;PMS_P2;Temp;Humidity;BMP_temperature;BMP_pressure;BME280_temperature;BME280_humidity;BME280_pressure;Samples;Min_cycle;Max_cycle;Signal;HPM_P1;HPM_P2
2021/04/14 00:01:48;;;;;;;6.35;1.88;;;;;;;;;;5065764;28;20120;-49
2021/04/14 00:04:14;;;;;;;4.38;1.90;;;;;;;;;;5067979;28;20052;-47
2021/04/14 00:06:41;;;;;;;2.13;1.45;;;;;;;;;;5068348;28;20045;-47
2021/04/14 00:09:08;;;;;;;;;;;;;;;;;;5068259;28;20408;-49
2021/04/14 00:11:35;;;;;;;3.03;1.80;;;;;;;;;;5067221;28;19924;-49
2021/04/14 00:14:02;;;;;;;4.00;1.63;;;;;;;;;;5066419;28;20051;-50
2021/04/14 00:16:29;;;;;;;3.10;1.65;;;;;;;;;;5065424;28;20464;-48
2021/04/14 00:18:55;;;;;;;7.65;2.20;;;;;;;;;;5067361;28;20037;-47
2021/04/14 00:21:23;;;;;;;6.43;1.80;;;;;;;;;;5065766;28;20046;-49
2021/04/14 00:23:49;;;;;;;6.47;1.90;;;;;;;;;;5067406;28;20522;-49
2021/04/14 00:26:16;;;;;;;3.58;1.90;;;;;;;;;;5066363;28;20041;-49
2021/04/14 00:28:43;;;;;;;4.90;1.90;;;;;;;;;;5066813;28;20048;-49
2021/04/14 00:31:09;;;;;;;3.90;1.47;;;;;;;;;;5066986;28;20106;-50
2021/04/14 00:33:35;;;;;;;3.35;2.05;;;;;;;;;;5067239;28;20144;-49
2021/04/14 00:36:02;;;;;;;3.33;1.83;;;;;;;;;;5067800;28;20212;-50
2021/04/14 00:38:28;;;;;;;6.28;2.03;;;;;;;;;;5065560;28;20447;-49
2021/04/14 00:40:59;;;;;;;5.78;2.25;;;;;;;;;;5066890;28;20044;-50
2021/04/14 00:43:28;;;;;;;4.72;1.70;;;;;;;;;;5066822;28;20036;-49
2021/04/14 00:45:55;;;;;;;3.08;1.70;;;;;;;;;;5068114;28;20040;-47
2021/04/14 00:48:21;;;;;;;3.67;1.73;;;;;;;;;;5065371;28;20048;-47
2021/04/14 00:50:48;;;;;;;3.13;1.92;;;;;;;;;;5063975;28;20041;-53
2021/04/14 00:53:15;;;;;;;4.80;2.10;;;;;;;;;;5064396;28;20040;-50
2021/04/14 00:55:42;;;;;;;5.10;1.45;;;;;;;;;;5065930;28;20048;-46
2021/04/14 00:58:09;;;;;;;3.42;2.00;;;;;;;;;;5063308;28;20045;-49
2021/04/14 01:00:37;;;;;;;2.13;1.38;;;;;;;;;;5066283;28;20476;-47
2021/04/14 01:03:05;;;;;;;3.05;1.63;;;;;;;;;;5065531;28;20086;-48
2021/04/14 01:05:32;;;;;;;5.10;2.05;;;;;;;;;;5068199;28;20576;-51
2021/04/14 01:07:58;;;;;;;6.85;2.45;;;;;;;;;;5063587;28;20389;-47
2021/04/14 01:10:24;;;;;;;4.65;1.80;;;;;;;;;;5065799;28;20055;-49
2021/04/14 01:12:52;;;;;;;4.37;1.33;;;;;;;;;;5068079;28;20040;-47
2021/04/14 01:15:24;;;;;;;2.60;1.55;;;;;;;;;;5066315;28;20123;-50
2021/04/14 01:17:50;;;;;;;2.87;1.67;;;;;;;;;;5065129;28;20526;-48
2021/04/14 01:20:17;;;;;;;2.50;1.80;;;;;;;;;;5063481;28;20041;-48
2021/04/14 01:22:43;;;;;;;2.92;1.80;;;;;;;;;;5066816;28;20316;-48
2021/04/14 01:25:11;;;;;;;4.63;2.10;;;;;;;;;;5066965;28;20040;-49
2021/04/14 01:27:38;;;;;;;3.87;1.70;;;;;;;;;;5064740;28;20127;-49
2021/04/14 01:30:19;;;;;;;4.68;1.95;;;;;;;;;;5065842;28;20090;-48
2021/04/14 01:32:45;;;;;;;2.58;1.85;;;;;;;;;;5063896;28;20052;-47
2021/04/14 01:35:12;;;;;;;2.97;2.10;;;;;;;;;;5065966;28;20140;-53
2021/04/14 01:37:39;;;;;;;3.65;1.60;;;;;;;;;;5065792;28;20569;-48
2021/04/14 01:40:06;;;;;;;3.33;1.80;;;;;;;;;;5066834;28;20044;-53
2021/04/14 01:42:32;;;;;;;4.22;2.00;;;;;;;;;;5063671;28;21136;-48
2021/04/14 01:44:58;;;;;;;2.53;1.50;;;;;;;;;;5064512;28;20037;-52
2021/04/14 01:47:25;;;;;;;3.95;1.73;;;;;;;;;;5065441;28;20106;-48
2021/04/14 01:49:51;;;;;;;5.37;1.90;;;;;;;;;;5065616;28;20037;-48
2021/04/14 01:52:17;;;;;;;4.80;1.90;;;;;;;;;;5065641;28;20041;-49
2021/04/14 01:54:43;;;;;;;3.72;1.80;;;;;;;;;;5064663;28;20076;-51
2021/04/14 01:57:09;;;;;;;3.23;2.03;;;;;;;;;;5066599;28;20101;-51
2021/04/14 01:59:35;;;;;;;6.75;2.10;;;;;;;;;;5069328;28;20037;-49
2021/04/14 02:02:02;;;;;;;8.87;1.70;;;;;;;;;;5068798;28;20064;-49
2021/04/14 02:04:29;;;;;;;3.58;1.70;;;;;;;;;;5070697;28;20039;-50
2021/04/14 02:06:55;;;;;;;4.37;2.00;;;;;;;;;;5070132;28;20044;-50
2021/04/14 02:09:21;;;;;;;4.83;1.70;;;;;;;;;;5067324;28;20657;-50
2021/04/14 02:11:47;;;;;;;3.90;1.80;;;;;;;;;;5069188;28;20805;-49
2021/04/14 02:14:13;;;;;;;2.53;1.52;;;;;;;;;;5069110;28;20603;-49
2021/04/14 02:16:40;;;;;;;7.90;1.97;;;;;;;;;;5067859;28;20546;-51
2021/04/14 02:19:07;;;;;;;5.45;2.25;;;;;;;;;;5068426;28;20072;-49
2021/04/14 02:21:33;;;;;;;7.90;3.07;;;;;;;;;;5065681;28;20048;-49
2021/04/14 02:23:59;;;;;;;8.27;3.70;;;;;;;;;;5068489;28;20052;-51
2021/04/14 02:26:26;;;;;;;8.60;3.80;;;;;;;;;;5068829;28;20045;-51
2021/04/14 02:28:53;;;;;;;9.17;3.43;;;;;;;;;;5071036;28;20060;-48
2021/04/14 02:31:30;;;;;;;7.60;3.35;;;;;;;;;;5070251;28;20048;-52
2021/04/14 02:34:15;;;;;;;5.30;2.40;;;;;;;;;;5069346;28;20485;-48
2021/04/14 02:36:42;;;;;;;3.17;2.00;;;;;;;;;;5085945;28;20068;-51
2021/04/14 02:39:10;;;;;;;6.77;1.97;;;;;;;;;;5070788;28;20570;-51
2021/04/14 02:41:37;;;;;;;7.70;2.10;;;;;;;;;;5067565;28;20071;-48
2021/04/14 02:44:04;;;;;;;2.85;1.73;;;;;;;;;;5068523;28;20504;-51
2021/04/14 02:46:30;;;;;;;8.60;2.10;;;;;;;;;;5068177;28;20045;-49
2021/04/14 02:48:56;;;;;;;4.17;2.00;;;;;;;;;;5067666;28;20295;-48
2021/04/14 02:51:23;;;;;;;4.53;2.10;;;;;;;;;;5068112;28;20032;-51
2021/04/14 02:53:49;;;;;;;4.23;2.13;;;;;;;;;;5070005;28;20051;-49
2021/04/14 02:56:15;;;;;;;5.30;2.30;;;;;;;;;;5067053;28;20132;-49
2021/04/14 02:58:41;;;;;;;7.73;1.77;;;;;;;;;;5069002;28;20101;-53
2021/04/14 03:01:08;;;;;;;3.37;1.93;;;;;;;;;;5067248;28;20617;-50
2021/04/14 03:03:34;;;;;;;2.13;1.70;;;;;;;;;;5067671;28;20045;-49
2021/04/14 03:06:00;;;;;;;6.87;1.77;;;;;;;;;;5068965;28;20051;-47
2021/04/14 03:08:27;;;;;;;8.93;2.10;;;;;;;;;;5068256;28;20407;-51
2021/04/14 03:10:53;;;;;;;7.23;1.90;;;;;;;;;;5066899;28;20036;-47
2021/04/14 03:13:19;;;;;;;1.80;1.60;;;;;;;;;;5067268;28;20054;-50
2021/04/14 03:15:45;;;;;;;5.37;1.90;;;;;;;;;;5068999;28;20048;-48
2021/04/14 03:18:13;;;;;;;3.93;1.90;;;;;;;;;;5066572;28;20045;-50
2021/04/14 03:20:40;;;;;;;2.95;1.55;;;;;;;;;;5068054;28;20051;-47
2021/04/14 03:23:06;;;;;;;2.17;1.40;;;;;;;;;;5069419;28;20040;-47
2021/04/14 03:25:32;;;;;;;4.50;1.58;;;;;;;;;;5068630;28;20093;-50
2021/04/14 03:28:00;;;;;;;4.13;1.53;;;;;;;;;;5070747;28;20056;-48
2021/04/14 03:30:26;;;;;;;;;;;;;;;;;;5068592;28;20044;-48
2021/04/14 03:32:55;;;;;;;4.90;1.55;;;;;;;;;;5068727;28;19927;-47
2021/04/14 03:35:22;;;;;;;5.90;1.70;;;;;;;;;;5068219;28;20064;-51
2021/04/14 03:37:48;;;;;;;1.92;1.40;;;;;;;;;;5068526;28;20048;-51
2021/04/14 03:40:15;;;;;;;3.87;1.60;;;;;;;;;;5068672;28;20036;-49
2021/04/14 03:42:41;;;;;;;2.60;1.60;;;;;;;;;;5065693;28;20047;-55
2021/04/14 03:45:14;;;;;;;4.07;1.90;;;;;;;;;;5065666;28;20048;-51
2021/04/14 03:47:40;;;;;;;2.50;1.67;;;;;;;;;;5067111;28;20048;-50
2021/04/14 03:50:08;;;;;;;2.40;1.60;;;;;;;;;;5066753;28;20118;-50
2021/04/14 03:52:34;;;;;;;;;;;;;;;;;;5068991;28;20557;-51
2021/04/14 03:55:00;;;;;;;2.87;1.60;;;;;;;;;;5067961;28;19920;-50
2021/04/14 03:57:45;;;;;;;1.70;1.50;;;;;;;;;;5067461;28;20098;-51
2021/04/14 04:00:12;;;;;;;5.17;1.60;;;;;;;;;;5066726;28;20125;-50
2021/04/14 04:02:40;;;;;;;2.33;1.80;;;;;;;;;;5064933;28;20040;-50
2021/04/14 04:05:08;;;;;;;2.07;1.60;;;;;;;;;;5065963;28;20048;-52
2021/04/14 04:07:34;;;;;;;6.22;2.10;;;;;;;;;;5066699;28;20298;-52
2021/04/14 04:10:00;;;;;;;3.97;1.83;;;;;;;;;;5066501;28;20132;-51
2021/04/14 04:12:26;;;;;;;4.75;1.50;;;;;;;;;;5066596;28;20480;-51
2021/04/14 04:14:53;;;;;;;2.60;1.60;;;;;;;;;;5066562;28;20043;-48
2021/04/14 04:17:20;;;;;;;4.03;1.97;;;;;;;;;;5064000;28;20496;-53
2021/04/14 04:19:48;;;;;;;3.17;1.80;;;;;;;;;;5067355;28;20507;-50
2021/04/14 04:22:14;;;;;;;;;;;;;;;;;;5066887;28;20063;-52
2021/04/14 04:24:40;;;;;;;1.93;1.40;;;;;;;;;;5066086;28;20047;-51
2021/04/14 04:27:06;;;;;;;2.77;1.50;;;;;;;;;;5065715;28;20605;-48
2021/04/14 04:29:32;;;;;;;3.37;1.80;;;;;;;;;;5066806;28;20063;-52
2021/04/14 04:31:58;;;;;;;3.13;1.80;;;;;;;;;;5066659;28;20049;-49
2021/04/14 04:34:25;;;;;;;5.50;1.60;;;;;;;;;;5067922;28;20526;-50
2021/04/14 04:36:52;;;;;;;2.83;1.55;;;;;;;;;;5064118;28;20432;-49
2021/04/14 04:39:19;;;;;;;4.35;1.17;;;;;;;;;;5065834;28;20060;-48
2021/04/14 04:41:46;;;;;;;2.35;1.40;;;;;;;;;;5067374;28;20500;-50
2021/04/14 04:44:13;;;;;;;2.47;1.57;;;;;;;;;;5066749;28;20044;-47
2021/04/14 04:46:39;;;;;;;1.30;1.10;;;;;;;;;;5068965;28;20029;-50
2021/04/14 04:49:06;;;;;;;1.90;1.50;;;;;;;;;;5067241;28;20052;-45
2021/04/14 04:51:32;;;;;;;3.15;2.03;;;;;;;;;;5067379;28;20933;-46
2021/04/14 04:53:58;;;;;;;3.25;1.30;;;;;;;;;;5067583;28;20028;-48
2021/04/14 04:56:25;;;;;;;5.05;1.58;;;;;;;;;;5068459;28;20147;-46
2021/04/14 04:58:51;;;;;;;5.03;1.37;;;;;;;;;;5068205;28;20511;-47
2021/04/14 05:01:18;;;;;;;5.55;1.60;;;;;;;;;;5065979;28;20048;-47
2021/04/14 05:03:44;;;;;;;4.68;1.40;;;;;;;;;;5063871;28;20040;-47
2021/04/14 05:06:11;;;;;;;3.47;2.30;;;;;;;;;;5067168;28;20127;-48
2021/04/14 05:08:37;;;;;;;5.88;1.77;;;;;;;;;;5067970;28;20098;-46
2021/04/14 05:11:03;;;;;;;5.55;1.73;;;;;;;;;;5066699;28;20152;-51
2021/04/14 05:13:30;;;;;;;6.57;2.50;;;;;;;;;;5066581;28;20044;-48
2021/04/14 05:15:56;;;;;;;4.03;1.70;;;;;;;;;;5067791;28;20041;-49
2021/04/14 05:18:23;;;;;;;5.20;1.50;;;;;;;;;;5063580;28;20049;-47
2021/04/14 05:20:49;;;;;;;1.73;1.40;;;;;;;;;;5067390;28;20381;-48
2021/04/14 05:23:15;;;;;;;6.20;1.98;;;;;;;;;;5067548;28;20439;-51
2021/04/14 05:25:45;;;;;;;4.70;1.90;;;;;;;;;;5068404;28;20499;-47
2021/04/14 05:28:14;;;;;;;2.65;1.80;;;;;;;;;;5066732;28;20136;-51
2021/04/14 05:30:40;;;;;;;6.05;1.45;;;;;;;;;;5066393;28;20574;-51
2021/04/14 05:33:07;;;;;;;1.87;1.43;;;;;;;;;;5067896;28;20052;-48
2021/04/14 05:35:34;;;;;;;2.60;1.15;;;;;;;;;;5069983;28;20119;-52
2021/04/14 05:38:01;;;;;;;2.03;1.30;;;;;;;;;;5068404;28;20072;-51
2021/04/14 05:40:27;;;;;;;;;;;;;;;;;;5072344;28;20048;-48
2021/04/14 05:42:54;;;;;;;4.57;1.50;;;;;;;;;;5072175;28;19956;-51
2021/04/14 05:45:22;;;;;;;6.70;1.50;;;;;;;;;;5072269;28;20058;-51
2021/04/14 05:47:48;;;;;;;;;;;;;;;;;;5071082;28;20036;-48
2021/04/14 05:50:19;;;;;;;4.97;1.30;;;;;;;;;;5070827;28;19920;-48
2021/04/14 05:52:45;;;;;;;4.03;1.65;;;;;;;;;;5071060;28;20049;-49
2021/04/14 05:55:12;;;;;;;3.00;1.42;;;;;;;;;;5070711;28;20523;-48
2021/04/14 05:57:38;;;;;;;3.20;1.80;;;;;;;;;;5070189;28;20055;-46
2021/04/14 06:00:08;;;;;;;6.47;1.73;;;;;;;;;;5068303;28;20075;-48
2021/04/14 06:02:34;;;;;;;5.53;2.28;;;;;;;;;;5069217;28;20170;-47
2021/04/14 06:05:00;;;;;;;6.15;1.90;;;;;;;;;;5070611;28;20049;-49
2021/04/14 06:07:26;;;;;;;5.65;1.80;;;;;;;;;;5070812;28;20098;-47
2021/04/14 06:09:53;;;;;;;7.47;2.37;;;;;;;;;;5071786;28;20040;-48
2021/04/14 06:12:19;;;;;;;5.63;1.88;;;;;;;;;;5069655;28;20805;-50
2021/04/14 06:14:46;;;;;;;2.42;1.65;;;;;;;;;;5069997;28;20048;-51
2021/04/14 06:17:12;;;;;;;2.63;1.70;;;;;;;;;;5067336;28;20053;-48
2021/04/14 06:19:38;;;;;;;9.25;1.83;;;;;;;;;;5069819;28;20040;-49
2021/04/14 06:22:05;;;;;;;2.97;1.58;;;;;;;;;;5070440;28;20458;-51
2021/04/14 06:24:32;;;;;;;6.97;1.80;;;;;;;;;;5068214;28;20052;-47
2021/04/14 06:27:01;;;;;;;7.53;2.00;;;;;;;;;;5066598;28;20299;-50
2021/04/14 06:29:29;;;;;;;2.67;1.60;;;;;;;;;;5068543;28;20118;-49
2021/04/14 06:31:56;;;;;;;7.45;1.80;;;;;;;;;;5069056;28;20071;-47
2021/04/14 06:34:24;;;;;;;4.68;1.60;;;;;;;;;;5070727;28;20089;-52
2021/04/14 06:36:53;;;;;;;4.88;2.05;;;;;;;;;;5069522;28;20115;-49
2021/04/14 06:39:21;;;;;;;7.60;2.30;;;;;;;;;;5069528;28;20056;-52
2021/04/14 06:42:27;;;;;;;5.82;1.85;;;;;;;;;;5066992;28;20037;-48
2021/04/14 06:45:13;;;;;;;2.92;1.33;;;;;;;;;;5066258;28;20052;-51
2021/04/14 06:47:51;;;;;;;3.75;1.83;;;;;;;;;;5067117;28;20524;-52
2021/04/14 06:50:30;;;;;;;2.95;1.50;;;;;;;;;;5069851;28;20044;-50
2021/04/14 06:52:57;;;;;;;4.28;1.70;;;;;;;;;;5068944;28;20048;-49
2021/04/14 06:55:28;;;;;;;3.70;1.90;;;;;;;;;;5069533;28;20060;-49
2021/04/14 06:57:56;;;;;;;3.22;1.77;;;;;;;;;;5068048;28;20036;-47
2021/04/14 07:00:26;;;;;;;4.72;1.83;;;;;;;;;;5068098;28;20041;-49
2021/04/14 07:03:02;;;;;;;5.47;2.47;;;;;;;;;;5070253;28;20377;-51
2021/04/14 07:05:36;;;;;;;5.15;2.30;;;;;;;;;;5068304;28;20041;-49
2021/04/14 07:08:05;;;;;;;5.53;2.55;;;;;;;;;;5068755;28;20036;-49
2021/04/14 07:10:32;;;;;;;2.53;2.10;;;;;;;;;;5069487;28;20121;-49
2021/04/14 07:13:00;;;;;;;5.85;1.95;;;;;;;;;;5069435;28;20404;-47
2021/04/14 07:15:27;;;;;;;2.67;1.85;;;;;;;;;;5068830;28;20072;-51
2021/04/14 07:18:15;;;;;;;1.42;1.30;;;;;;;;;;5067530;28;20082;-51
2021/04/14 07:20:57;;;;;;;2.92;1.40;;;;;;;;;;5068417;28;20044;-51
2021/04/14 07:23:35;;;;;;;3.45;1.20;;;;;;;;;;5067687;28;20822;-51
2021/04/14 07:26:02;;;;;;;;;;;;;;;;;;5069814;28;20052;-49
2021/04/14 07:28:28;;;;;;;1.95;1.17;;;;;;;;;;5068271;28;19920;-48
2021/04/14 07:30:54;;;;;;;1.17;1.02;;;;;;;;;;5068814;28;20072;-46
2021/04/14 07:33:25;;;;;;;1.77;1.10;;;;;;;;;;5068607;28;20044;-48
2021/04/14 07:35:51;;;;;;;1.35;1.05;;;;;;;;;;5068401;28;20064;-48
2021/04/14 07:38:23;;;;;;;4.15;1.95;;;;;;;;;;5067960;28;20056;-46
2021/04/14 07:40:57;;;;;;;3.05;1.08;;;;;;;;;;5067673;28;20098;-50
2021/04/14 07:43:36;;;;;;;1.35;0.90;;;;;;;;;;5068314;28;20105;-50
2021/04/14 07:46:04;;;;;;;1.90;0.95;;;;;;;;;;5068335;28;20056;-49
2021/04/14 07:48:31;;;;;;;1.08;0.90;;;;;;;;;;5068677;28;20036;-50
2021/04/14 07:50:59;;;;;;;;;;;;;;;;;;5066378;28;20060;-49
2021/04/14 07:53:30;;;;;;;3.53;1.40;;;;;;;;;;5065407;28;19928;-49
2021/04/14 07:56:19;;;;;;;2.03;0.90;;;;;;;;;;5069417;28;20113;-52
2021/04/14 07:58:46;;;;;;;2.50;1.05;;;;;;;;;;5068257;28;20051;-48
2021/04/14 08:01:17;;;;;;;1.25;0.73;;;;;;;;;;5068641;28;20044;-50
2021/04/14 08:03:43;;;;;;;2.20;0.85;;;;;;;;;;5068490;28;20071;-50
2021/04/14 08:06:09;;;;;;;0.60;0.60;;;;;;;;;;5066916;28;20668;-49
2021/04/14 08:08:36;;;;;;;0.95;0.85;;;;;;;;;;5068962;28;20101;-50
2021/04/14 08:11:15;;;;;;;2.70;0.80;;;;;;;;;;5067331;28;20045;-51
2021/04/14 08:13:42;;;;;;;0.60;0.60;;;;;;;;;;5065258;28;20066;-47
2021/04/14 08:16:16;;;;;;;1.58;1.05;;;;;;;;;;5066983;28;20044;-46
2021/04/14 08:18:50;;;;;;;1.30;0.60;;;;;;;;;;5066524;28;20047;-49
2021/04/14 08:21:25;;;;;;;0.50;0.50;;;;;;;;;;5068158;28;20044;-51
2021/04/14 08:24:12;;;;;;;0.85;0.52;;;;;;;;;;5068822;28;20418;-49
2021/04/14 08:26:48;;;;;;;2.70;1.08;;;;;;;;;;5069576;28;20040;-51
2021/04/14 08:29:15;;;;;;;4.35;0.80;;;;;;;;;;5064166;28;20056;-49
2021/04/14 08:31:50;;;;;;;0.60;0.50;;;;;;;;;;5067425;28;20079;-47
2021/04/14 08:34:19;;;;;;;0.75;0.43;;;;;;;;;;5067391;28;20055;-52
2021/04/14 08:36:58;;;;;;;0.47;0.40;;;;;;;;;;5068126;28;20052;-51
2021/04/14 08:39:34;;;;;;;1.40;0.50;;;;;;;;;;5066036;28;20094;-49
2021/04/14 08:42:09;;;;;;;2.22;0.80;;;;;;;;;;5067517;28;20500;-50
2021/04/14 08:44:37;;;;;;;0.88;0.57;;;;;;;;;;5067731;28;20729;-50
2021/04/14 08:47:08;;;;;;;0.57;0.50;;;;;;;;;;5068912;28;20741;-49
2021/04/14 08:49:35;;;;;;;1.80;0.80;;;;;;;;;;5066207;28;20041;-50
2021/04/14 08:52:02;;;;;;;;;;;;;;;;;;5067505;28;20122;-51
2021/04/14 08:54:32;;;;;;;1.35;0.75;;;;;;;;;;5068475;28;19920;-50
2021/04/14 08:57:00;;;;;;;0.80;0.70;;;;;;;;;;5068776;28;20048;-52
2021/04/14 08:59:27;;;;;;;0.85;0.68;;;;;;;;;;5068011;28;20460;-51
2021/04/14 09:01:54;;;;;;;0.40;0.40;;;;;;;;;;5064655;28;20709;-50
2021/04/14 09:04:20;;;;;;;0.95;0.40;;;;;;;;;;5068029;28;20571;-53
2021/04/14 09:06:48;;;;;;;1.10;0.60;;;;;;;;;;5067063;28;20055;-52
2021/04/14 09:09:19;;;;;;;1.17;0.63;;;;;;;;;;5067379;28;20052;-48
2021/04/14 09:11:55;;;;;;;1.38;0.68;;;;;;;;;;5066416;28;20415;-48
2021/04/14 09:14:25;;;;;;;0.93;0.55;;;;;;;;;;5065685;28;20051;-51
2021/04/14 09:16:52;;;;;;;0.93;0.60;;;;;;;;;;5065401;28;20123;-53
2021/04/14 09:19:19;;;;;;;2.63;0.70;;;;;;;;;;5068299;28;20044;-50
2021/04/14 09:21:57;;;;;;;0.60;0.50;;;;;;;;;;5064283;28;20032;-54
2021/04/14 09:24:31;;;;;;;2.40;0.80;;;;;;;;;;5067462;28;20420;-51
2021/04/14 09:26:58;;;;;;;1.98;0.85;;;;;;;;;;5067102;28;20064;-49
2021/04/14 09:29:31;;;;;;;3.92;0.75;;;;;;;;;;5066929;28;20427;-51
2021/04/14 09:32:05;;;;;;;0.55;0.50;;;;;;;;;;5065756;28;20037;-50
2021/04/14 09:34:37;;;;;;;4.35;0.77;;;;;;;;;;5065241;28;20491;-50
2021/04/14 09:37:05;;;;;;;3.72;0.80;;;;;;;;;;5066366;28;20044;-54
2021/04/14 09:39:33;;;;;;;0.90;0.75;;;;;;;;;;5066450;28;20538;-47
2021/04/14 09:42:13;;;;;;;2.08;1.13;;;;;;;;;;5066976;28;20048;-51
2021/04/14 09:44:44;;;;;;;1.38;0.70;;;;;;;;;;5067707;28;20064;-49
2021/04/14 09:47:11;;;;;;;0.60;0.60;;;;;;;;;;5066499;28;20048;-50
2021/04/14 09:49:39;;;;;;;0.95;0.60;;;;;;;;;;5067521;28;20452;-47
2021/04/14 09:52:24;;;;;;;1.08;0.88;;;;;;;;;;5066672;28;20041;-49
2021/04/14 09:54:53;;;;;;;2.00;0.65;;;;;;;;;;5075335;28;20048;-52
2021/04/14 09:57:24;;;;;;;0.57;0.57;;;;;;;;;;5064480;28;20063;-49
2021/04/14 09:59:50;;;;;;;1.13;0.80;;;;;;;;;;5063512;28;20068;-49
2021/04/14 10:02:21;;;;;;;0.90;0.68;;;;;;;;;;5082446;28;20044;-51
2021/04/14 10:04:47;;;;;;;1.45;0.52;;;;;;;;;;5065563;28;20044;-51
2021/04/14 10:07:19;;;;;;;2.80;0.67;;;;;;;;;;5067016;28;20258;-54
2021/04/14 10:09:46;;;;;;;0.65;0.65;;;;;;;;;;5066841;28;20040;-54
2021/04/14 10:12:14;;;;;;;0.90;0.40;;;;;;;;;;5062972;28;20419;-53
2021/04/14 10:14:42;;;;;;;0.32;0.32;;;;;;;;;;5083534;28;20044;-49
2021/04/14 10:17:09;;;;;;;0.40;0.35;;;;;;;;;;5066867;28;20045;-52
2021/04/14 10:19:36;;;;;;;0.88;0.57;;;;;;;;;;5070153;28;20068;-49
2021/04/14 10:22:07;;;;;;;1.45;0.80;;;;;;;;;;5070127;28;20061;-48
2021/04/14 10:24:33;;;;;;;0.32;0.32;;;;;;;;;;5068663;28;20500;-50
2021/04/14 10:27:06;;;;;;;2.15;0.55;;;;;;;;;;5071640;28;20045;-52
2021/04/14 10:29:40;;;;;;;0.30;0.30;;;;;;;;;;5068589;28;20052;-48
2021/04/14 10:32:20;;;;;;;2.78;0.40;;;;;;;;;;5069282;28;20037;-51
2021/04/14 10:34:47;;;;;;;0.22;0.22;;;;;;;;;;5066606;28;20044;-51
2021/04/14 10:37:16;;;;;;;0.97;0.70;;;;;;;;;;5068868;28;20098;-50
2021/04/14 10:39:42;;;;;;;2.25;0.55;;;;;;;;;;5068753;28;20044;-52
2021/04/14 10:42:16;;;;;;;0.63;0.50;;;;;;;;;;5069419;28;20041;-51
2021/04/14 10:44:43;;;;;;;0.55;0.38;;;;;;;;;;5069302;28;20044;-50
2021/04/14 10:47:25;;;;;;;0.73;0.30;;;;;;;;;;5070513;28;20483;-52
2021/04/14 10:49:52;;;;;;;1.63;0.40;;;;;;;;;;5068124;28;20049;-50
2021/04/14 10:52:20;;;;;;;0.50;0.50;;;;;;;;;;5070487;28;20508;-53
2021/04/14 10:54:47;;;;;;;0.65;0.40;;;;;;;;;;5067618;28;20193;-53
2021/04/14 10:57:19;;;;;;;4.30;0.70;;;;;;;;;;5069048;28;20052;-48
2021/04/14 10:59:46;;;;;;;0.50;0.40;;;;;;;;;;5069261;28;20098;-52
2021/04/14 11:02:17;;;;;;;3.20;0.82;;;;;;;;;;5069432;28;20045;-49
2021/04/14 11:04:45;;;;;;;0.57;0.30;;;;;;;;;;5068932;28;20140;-49
2021/04/14 11:07:21;;;;;;;0.90;0.57;;;;;;;;;;5068107;28;20091;-51
2021/04/14 11:09:48;;;;;;;1.00;0.50;;;;;;;;;;5068791;28;20104;-53
2021/04/14 11:12:19;;;;;;;2.22;0.47;;;;;;;;;;5063559;28;20049;-51
2021/04/14 11:14:47;;;;;;;1.08;0.40;;;;;;;;;;5068706;28;20036;-48
2021/04/14 11:17:23;;;;;;;0.95;0.50;;;;;;;;;;5067196;28;20102;-54
2021/04/14 11:19:54;;;;;;;2.35;0.70;;;;;;;;;;5068649;28;20045;-51
2021/04/14 11:22:21;;;;;;;0.73;0.50;;;;;;;;;;5070031;28;20124;-52
2021/04/14 11:24:51;;;;;;;1.55;0.47;;;;;;;;;;5066891;28;20063;-48
2021/04/14 11:27:23;;;;;;;3.63;0.60;;;;;;;;;;5066551;28;20102;-53
2021/04/14 11:29:51;;;;;;;0.40;0.40;;;;;;;;;;5068244;28;20056;-49
2021/04/14 11:32:19;;;;;;;2.95;0.50;;;;;;;;;;5067472;28;20542;-49
2021/04/14 11:35:03;;;;;;;0.43;0.40;;;;;;;;;;5068143;28;20056;-50
2021/04/14 11:37:41;;;;;;;1.02;0.57;;;;;;;;;;5065935;28;20044;-54
2021/04/14 11:40:19;;;;;;;1.83;0.55;;;;;;;;;;5069891;28;20225;-52
2021/04/14 11:42:52;;;;;;;0.35;0.30;;;;;;;;;;5068691;28;20094;-53
2021/04/14 11:45:32;;;;;;;2.10;0.45;;;;;;;;;;5068025;28;20056;-48
2021/04/14 11:48:10;;;;;;;1.23;0.47;;;;;;;;;;5065620;28;20114;-49
2021/04/14 11:50:37;;;;;;;0.95;0.40;;;;;;;;;;5067237;28;20057;-51
2021/04/14 11:53:17;;;;;;;0.73;0.40;;;;;;;;;;5067170;28;20515;-48
2021/04/14 11:55:44;;;;;;;0.30;0.30;;;;;;;;;;5067466;28;20054;-51
2021/04/14 11:58:21;;;;;;;1.48;0.75;;;;;;;;;;5067721;28;20049;-48
2021/04/14 12:00:48;;;;;;;0.47;0.47;;;;;;;;;;5068608;28;20044;-51
2021/04/14 12:03:20;;;;;;;1.50;0.82;;;;;;;;;;5068072;28;20047;-49
2021/04/14 12:05:53;;;;;;;0.40;0.40;;;;;;;;;;5067613;28;20585;-50
2021/04/14 12:08:20;;;;;;;2.75;0.50;;;;;;;;;;5068266;28;20044;-51
2021/04/14 12:10:46;;;;;;;0.57;0.50;;;;;;;;;;5066773;28;20145;-52
2021/04/14 12:13:12;;;;;;;0.68;0.47;;;;;;;;;;5069326;28;20041;-49
2021/04/14 12:15:39;;;;;;;0.77;0.63;;;;;;;;;;5068978;28;20046;-49
2021/04/14 12:18:05;;;;;;;1.00;0.60;;;;;;;;;;5074897;28;20315;-53
2021/04/14 12:20:31;;;;;;;1.27;0.50;;;;;;;;;;5064907;28;20054;-53
2021/04/14 12:22:59;;;;;;;1.95;0.82;;;;;;;;;;5067316;28;20048;-51
2021/04/14 12:25:25;;;;;;;0.33;0.33;;;;;;;;;;5067608;28;20779;-52
2021/04/14 12:27:51;;;;;;;1.25;0.57;;;;;;;;;;5068210;28;20040;-53
2021/04/14 12:30:20;;;;;;;1.77;0.70;;;;;;;;;;5067501;28;20405;-51
2021/04/14 12:32:48;;;;;;;2.38;0.60;;;;;;;;;;5066501;28;20098;-53
2021/04/14 12:35:14;;;;;;;0.50;0.50;;;;;;;;;;5067885;28;20075;-51
2021/04/14 12:37:40;;;;;;;1.15;0.35;;;;;;;;;;5067675;28;20086;-52
2021/04/14 12:40:09;;;;;;;0.68;0.57;;;;;;;;;;5065198;28;20053;-53
2021/04/14 12:42:50;;;;;;;1.48;0.52;;;;;;;;;;5065697;28;20040;-52
2021/04/14 12:45:20;;;;;;;0.90;0.50;;;;;;;;;;5066419;28;20076;-52
2021/04/14 12:47:46;;;;;;;1.13;0.68;;;;;;;;;;5064837;28;20044;-51
2021/04/14 12:50:12;;;;;;;1.60;0.35;;;;;;;;;;5067353;28;20040;-53
2021/04/14 12:52:46;;;;;;;2.35;0.50;;;;;;;;;;5066164;28;20078;-52
2021/04/14 12:55:15;;;;;;;1.75;0.70;;;;;;;;;;5066386;28;20059;-51
2021/04/14 12:57:42;;;;;;;0.60;0.55;;;;;;;;;;5066279;28;20045;-49
2021/04/14 13:00:10;;;;;;;2.60;1.00;;;;;;;;;;5068027;28;20048;-48
2021/04/14 13:02:42;;;;;;;1.20;0.40;;;;;;;;;;5068369;28;20540;-51
2021/04/14 13:05:10;;;;;;;1.23;0.43;;;;;;;;;;5068565;28;20052;-51
2021/04/14 13:07:52;;;;;;;2.38;0.45;;;;;;;;;;5065661;28;20032;-51
2021/04/14 13:10:21;;;;;;;1.73;0.50;;;;;;;;;;5066285;28;20051;-51
2021/04/14 13:12:47;;;;;;;1.38;0.65;;;;;;;;;;5065156;28;20048;-50
2021/04/14 13:15:15;;;;;;;2.10;0.50;;;;;;;;;;5066514;28;20040;-53
2021/04/14 13:17:48;;;;;;;2.53;0.82;;;;;;;;;;5064063;28;20049;-52
2021/04/14 13:20:20;;;;;;;1.40;0.68;;;;;;;;;;5066857;28;20059;-49
2021/04/14 13:22:58;;;;;;;0.50;0.47;;;;;;;;;;5066772;28;20401;-55
2021/04/14 13:25:31;;;;;;;0.55;0.50;;;;;;;;;;5065885;28;20061;-52
2021/04/14 13:28:02;;;;;;;0.95;0.60;;;;;;;;;;5082604;28;20136;-52
2021/04/14 13:30:31;;;;;;;0.65;0.40;;;;;;;;;;5066783;28;20094;-52
2021/04/14 13:33:10;;;;;;;0.73;0.43;;;;;;;;;;5066990;28;20036;-48
2021/04/14 13:35:39;;;;;;;0.82;0.65;;;;;;;;;;5066694;28;20041;-47
2021/04/14 13:38:20;;;;;;;1.77;0.57;;;;;;;;;;5066933;28;20049;-53
2021/04/14 13:41:02;;;;;;;3.10;0.63;;;;;;;;;;5066375;28;20076;-51
2021/04/14 13:43:29;;;;;;;1.63;0.80;;;;;;;;;;5066356;28;20049;-54
2021/04/14 13:46:10;;;;;;;1.02;0.63;;;;;;;;;;5066266;28;20048;-50
2021/04/14 13:48:48;;;;;;;5.05;0.63;;;;;;;;;;5065489;28;20696;-50
2021/04/14 13:51:16;;;;;;;1.88;0.75;;;;;;;;;;5067525;28;20485;-51
2021/04/14 13:53:43;;;;;;;1.02;0.40;;;;;;;;;;5067747;28;20395;-49
2021/04/14 13:56:32;;;;;;;2.35;0.60;;;;;;;;;;5070535;28;20040;-51
2021/04/14 13:59:05;;;;;;;0.77;0.50;;;;;;;;;;5068170;28;20586;-50
2021/04/14 14:01:35;;;;;;;1.25;0.50;;;;;;;;;;5070157;28;20296;-51
2021/04/14 14:04:02;;;;;;;0.50;0.40;;;;;;;;;;5067708;28;20377;-55
2021/04/14 14:06:46;;;;;;;1.40;0.40;;;;;;;;;;5068970;28;20047;-49
2021/04/14 14:09:14;;;;;;;1.90;0.75;;;;;;;;;;5068568;28;20131;-54
2021/04/14 14:11:42;;;;;;;1.13;0.73;;;;;;;;;;5069205;28;20140;-51
2021/04/14 14:14:08;;;;;;;;;;;;;;;;;;5068576;28;20044;-52
2021/04/14 14:16:54;;;;;;;1.55;0.70;;;;;;;;;;5070396;28;20119;-52
2021/04/14 14:19:39;;;;;;;1.25;0.80;;;;;;;;;;5067263;28;20069;-52
2021/04/14 14:22:07;;;;;;;0.98;0.65;;;;;;;;;;5069072;28;20094;-48
2021/04/14 14:24:34;;;;;;;0.98;0.50;;;;;;;;;;5067546;28;20044;-54
2021/04/14 14:27:01;;;;;;;1.50;0.95;;;;;;;;;;5070895;28;20048;-53
2021/04/14 14:29:31;;;;;;;3.33;0.70;;;;;;;;;;5067535;28;20118;-48
2021/04/14 14:31:59;;;;;;;1.70;0.60;;;;;;;;;;5070657;28;20052;-49
2021/04/14 14:34:26;;;;;;;1.50;0.85;;;;;;;;;;5070299;28;20049;-51
2021/04/14 14:36:58;;;;;;;0.93;0.70;;;;;;;;;;5069441;28;20045;-52
2021/04/14 14:39:30;;;;;;;2.97;0.93;;;;;;;;;;5068455;28;20098;-48
2021/04/14 14:42:03;;;;;;;0.98;0.68;;;;;;;;;;5068018;28;20443;-50
2021/04/14 14:44:33;;;;;;;1.00;0.85;;;;;;;;;;5069891;28;20033;-52
2021/04/14 14:47:01;;;;;;;3.08;1.00;;;;;;;;;;5067781;28;20053;-48
2021/04/14 14:49:34;;;;;;;2.08;0.93;;;;;;;;;;5069168;28;20566;-53
2021/04/14 14:52:01;;;;;;;2.97;0.60;;;;;;;;;;5070680;28;20091;-51
2021/04/14 14:54:29;;;;;;;1.20;0.90;;;;;;;;;;5070349;28;20040;-49
2021/04/14 14:57:00;;;;;;;7.22;0.85;;;;;;;;;;5067588;28;20766;-48
2021/04/14 14:59:27;;;;;;;1.80;0.50;;;;;;;;;;5069736;28;20577;-51